CAN YBAF-YHBA
Flight info
| Callsign | CAN |
|---|---|
| Flight time | 0h 58m |
| Altitude | 8000 |
| Route | YHBA |
| Aircraft | DA62/L-SDFGRY/C |
Departure
| Time | 2026-05-04 00:45 |
|---|---|
| Airport | Brisbane Archerfield Airport (YBAF) |
Arrival
| Time | 2026-05-04 01:43 |
|---|---|
| Airport | Hervey Bay Airport (YHBA) |
| Time | Latitude | Longitude | Altitude | Speed | Heading |
|---|---|---|---|---|---|
| 2026-05-04 00:36 | -27.57297 | 153.01223 | 46 ft | 0 kts | 288° |
| 2026-05-04 00:41 | -27.57303 | 153.01202 | 55 ft | 3 kts | 216° |
| 2026-05-04 00:42 | -27.57310 | 153.01197 | 59 ft | 2 kts | 218° |
| 2026-05-04 00:42 | -27.57314 | 153.01144 | 59 ft | 1 kts | 283° |
| 2026-05-04 00:43 | -27.57328 | 153.01133 | 53 ft | 6 kts | 186° |
| 2026-05-04 00:43 | -27.57384 | 153.01124 | 59 ft | 2 kts | 193° |
| 2026-05-04 00:44 | -27.57400 | 153.01120 | 59 ft | 5 kts | 189° |
| 2026-05-04 00:44 | -27.57422 | 153.01076 | 57 ft | 14 kts | 288° |
| 2026-05-04 00:44 | -27.57313 | 153.00708 | 53 ft | 83 kts | 288° |
| 2026-05-04 00:45 | -27.57074 | 152.99930 | 111 ft | 123 kts | 288° |
| 2026-05-04 00:45 | -27.56771 | 152.98966 | 389 ft | 129 kts | 288° |
| 2026-05-04 00:45 | -27.56465 | 152.98056 | 919 ft | 122 kts | 290° |
| 2026-05-04 00:45 | -27.56165 | 152.97132 | 1288 ft | 133 kts | 289° |
| 2026-05-04 00:46 | -27.55847 | 152.96158 | 1674 ft | 133 kts | 288° |
| 2026-05-04 00:46 | -27.55537 | 152.95186 | 2069 ft | 133 kts | 290° |
| 2026-05-04 00:46 | -27.55179 | 152.94199 | 2434 ft | 137 kts | 294° |
| 2026-05-04 00:46 | -27.54674 | 152.93306 | 2748 ft | 141 kts | 321° |
| 2026-05-04 00:47 | -27.53777 | 152.92829 | 3034 ft | 141 kts | 353° |
| 2026-05-04 00:47 | -27.52866 | 152.92934 | 3499 ft | 130 kts | 25° |
| 2026-05-04 00:47 | -27.52038 | 152.93306 | 3931 ft | 127 kts | 19° |
| 2026-05-04 00:47 | -27.51131 | 152.93281 | 4245 ft | 140 kts | 344° |
| 2026-05-04 00:48 | -27.50272 | 152.92744 | 4677 ft | 139 kts | 332° |
| 2026-05-04 00:48 | -27.49446 | 152.92196 | 5143 ft | 139 kts | 334° |
| 2026-05-04 00:48 | -27.48573 | 152.91701 | 5501 ft | 143 kts | 339° |
| 2026-05-04 00:48 | -27.47668 | 152.91273 | 6002 ft | 138 kts | 341° |
| 2026-05-04 00:49 | -27.46767 | 152.90892 | 6397 ft | 142 kts | 344° |
| 2026-05-04 00:49 | -27.45238 | 152.90368 | 6857 ft | 150 kts | 347° |
| 2026-05-04 00:49 | -27.43115 | 152.89743 | 7266 ft | 161 kts | 347° |
| 2026-05-04 00:49 | -27.40868 | 152.89049 | 7587 ft | 170 kts | 347° |
| 2026-05-04 00:50 | -27.38861 | 152.88671 | 7985 ft | 166 kts | 12° |
| 2026-05-04 00:50 | -27.37693 | 152.88947 | 8001 ft | 177 kts | 13° |
| 2026-05-04 00:50 | -27.36480 | 152.89042 | 8002 ft | 178 kts | 351° |
| 2026-05-04 00:50 | -27.35281 | 152.88712 | 8004 ft | 178 kts | 347° |
| 2026-05-04 00:51 | -27.32571 | 152.87878 | 8003 ft | 178 kts | 345° |
| 2026-05-04 00:51 | -27.28308 | 152.85292 | 8013 ft | 182 kts | 307° |
| 2026-05-04 00:51 | -27.25963 | 152.80236 | 8018 ft | 183 kts | 298° |
| 2026-05-04 00:51 | -27.23681 | 152.75153 | 8026 ft | 182 kts | 298° |
| 2026-05-04 00:52 | -27.16426 | 152.59028 | 8025 ft | 180 kts | 298° |
| 2026-05-04 00:52 | -27.06280 | 152.39900 | 8024 ft | 177 kts | 318° |
| 2026-05-04 00:52 | -26.88335 | 152.33095 | 8032 ft | 177 kts | 359° |
| 2026-05-04 00:52 | -26.68571 | 152.32886 | 8026 ft | 178 kts | 360° |
| 2026-05-04 00:53 | -26.48705 | 152.32469 | 8003 ft | 179 kts | 359° |
| 2026-05-04 00:53 | -26.28754 | 152.31893 | 8006 ft | 179 kts | 359° |
| 2026-05-04 00:53 | -26.08793 | 152.31239 | 8005 ft | 180 kts | 359° |
| 2026-05-04 00:53 | -25.91802 | 152.30595 | 7997 ft | 180 kts | 359° |
| 2026-05-04 00:54 | -25.88835 | 152.30477 | 7998 ft | 179 kts | 359° |
| 2026-05-04 00:54 | -25.84147 | 152.30286 | 7999 ft | 179 kts | 359° |
| 2026-05-04 00:54 | -25.82897 | 152.30235 | 7987 ft | 180 kts | 360° |
| 2026-05-04 00:54 | -25.81661 | 152.30185 | 7931 ft | 180 kts | 359° |
| 2026-05-04 00:55 | -25.80464 | 152.30132 | 7780 ft | 167 kts | 360° |
| 2026-05-04 00:55 | -25.79331 | 152.30076 | 7608 ft | 160 kts | 359° |
| 2026-05-04 00:55 | -25.78212 | 152.30013 | 7390 ft | 163 kts | 359° |
| 2026-05-04 00:55 | -25.77142 | 152.29624 | 7175 ft | 169 kts | 321° |
| 2026-05-04 00:56 | -25.76525 | 152.28514 | 6959 ft | 172 kts | 291° |
| 2026-05-04 00:56 | -25.76485 | 152.27213 | 6754 ft | 172 kts | 249° |
| 2026-05-04 00:56 | -25.77259 | 152.26258 | 6539 ft | 168 kts | 201° |
| 2026-05-04 00:56 | -25.78356 | 152.26184 | 6325 ft | 160 kts | 157° |
| 2026-05-04 00:57 | -25.79132 | 152.26993 | 6110 ft | 156 kts | 111° |
| 2026-05-04 00:57 | -25.79102 | 152.28159 | 5898 ft | 157 kts | 65° |
| 2026-05-04 00:57 | -25.78281 | 152.28924 | 5730 ft | 161 kts | 20° |
| 2026-05-04 00:57 | -25.76723 | 152.28739 | 5492 ft | 163 kts | 351° |
| 2026-05-04 00:58 | -25.68375 | 152.26844 | 4992 ft | 142 kts | 352° |
| 2026-05-04 00:58 | -25.60635 | 152.25028 | 4984 ft | 146 kts | 353° |
| 2026-05-04 00:58 | -25.51741 | 152.23029 | 4991 ft | 163 kts | 352° |
| 2026-05-04 00:58 | -25.43922 | 152.21255 | 4976 ft | 155 kts | 352° |
| 2026-05-04 00:59 | -25.42038 | 152.21281 | 4978 ft | 149 kts | 29° |
| 2026-05-04 00:59 | -25.38406 | 152.23220 | 4980 ft | 156 kts | 30° |
| 2026-05-04 00:59 | -25.22779 | 152.31596 | 4950 ft | 159 kts | 30° |
| 2026-05-04 00:59 | -25.21398 | 152.32331 | 4961 ft | 157 kts | 31° |
| 2026-05-04 01:00 | -25.20388 | 152.32883 | 4802 ft | 168 kts | 30° |
| 2026-05-04 01:00 | -25.19317 | 152.33468 | 4579 ft | 175 kts | 31° |
| 2026-05-04 01:00 | -25.18227 | 152.34065 | 4357 ft | 175 kts | 30° |
| 2026-05-04 01:00 | -25.17133 | 152.34664 | 4138 ft | 173 kts | 31° |
| 2026-05-04 01:01 | -25.16094 | 152.35223 | 3909 ft | 159 kts | 31° |
| 2026-05-04 01:01 | -25.15122 | 152.35678 | 3670 ft | 146 kts | 17° |
| 2026-05-04 01:01 | -25.14163 | 152.35850 | 3437 ft | 136 kts | 14° |
| 2026-05-04 01:01 | -25.13245 | 152.35986 | 3198 ft | 131 kts | 13° |
| 2026-05-04 01:02 | -25.12341 | 152.36123 | 2985 ft | 130 kts | 13° |
| 2026-05-04 01:02 | -25.11107 | 152.36303 | 2974 ft | 136 kts | 11° |
| 2026-05-04 01:02 | -25.07108 | 152.36933 | 2958 ft | 148 kts | 13° |
| 2026-05-04 01:02 | -25.04808 | 152.37314 | 2974 ft | 152 kts | 12° |
| 2026-05-04 01:03 | -25.03749 | 152.37416 | 2976 ft | 157 kts | 357° |
| 2026-05-04 01:03 | -25.02699 | 152.37206 | 2945 ft | 154 kts | 352° |
| 2026-05-04 01:03 | -25.01178 | 152.36894 | 2716 ft | 164 kts | 352° |
| 2026-05-04 01:03 | -24.96447 | 152.35920 | 2057 ft | 172 kts | 352° |
| 2026-05-04 01:04 | -24.95867 | 152.35754 | 1982 ft | 173 kts | 340° |
| 2026-05-04 01:04 | -24.95339 | 152.35453 | 1965 ft | 169 kts | 333° |
| 2026-05-04 01:04 | -24.94816 | 152.35163 | 1897 ft | 168 kts | 335° |
| 2026-05-04 01:04 | -24.94307 | 152.34862 | 1720 ft | 161 kts | 330° |
| 2026-05-04 01:05 | -24.93835 | 152.34553 | 1369 ft | 157 kts | 328° |
| 2026-05-04 01:05 | -24.93395 | 152.34243 | 1094 ft | 140 kts | 327° |
| 2026-05-04 01:05 | -24.93029 | 152.33978 | 877 ft | 119 kts | 328° |
| 2026-05-04 01:05 | -24.92694 | 152.33748 | 652 ft | 110 kts | 329° |
| 2026-05-04 01:06 | -24.92372 | 152.33541 | 446 ft | 106 kts | 332° |
| 2026-05-04 01:06 | -24.92059 | 152.33332 | 335 ft | 103 kts | 330° |
| 2026-05-04 01:06 | -24.91760 | 152.33125 | 228 ft | 98 kts | 329° |
| 2026-05-04 01:06 | -24.91474 | 152.32936 | 151 ft | 94 kts | 330° |
| 2026-05-04 01:07 | -24.91197 | 152.32752 | 114 ft | 89 kts | 323° |
| 2026-05-04 01:07 | -24.90951 | 152.32569 | 105 ft | 80 kts | 328° |
| 2026-05-04 01:07 | -24.90731 | 152.32417 | 108 ft | 82 kts | 327° |
| 2026-05-04 01:07 | -24.90457 | 152.32229 | 141 ft | 104 kts | 329° |
| 2026-05-04 01:08 | -24.90137 | 152.32015 | 303 ft | 106 kts | 330° |
| 2026-05-04 01:08 | -24.89830 | 152.31819 | 579 ft | 100 kts | 329° |
| 2026-05-04 01:08 | -24.89517 | 152.31621 | 721 ft | 110 kts | 331° |
| 2026-05-04 01:08 | -24.89171 | 152.31384 | 795 ft | 123 kts | 315° |
| 2026-05-04 01:09 | -24.88950 | 152.30971 | 892 ft | 133 kts | 278° |
| 2026-05-04 01:09 | -24.88976 | 152.30461 | 1055 ft | 135 kts | 250° |
| 2026-05-04 01:09 | -24.89108 | 152.29940 | 1127 ft | 146 kts | 253° |
| 2026-05-04 01:09 | -24.89258 | 152.29399 | 1172 ft | 153 kts | 241° |
| 2026-05-04 01:10 | -24.89602 | 152.28958 | 1177 ft | 153 kts | 206° |
| 2026-05-04 01:10 | -24.90107 | 152.28815 | 1175 ft | 154 kts | 173° |
| 2026-05-04 01:10 | -24.90614 | 152.29031 | 1092 ft | 160 kts | 147° |
| 2026-05-04 01:10 | -24.91082 | 152.29332 | 1035 ft | 144 kts | 149° |
| 2026-05-04 01:11 | -24.91486 | 152.29594 | 988 ft | 126 kts | 147° |
| 2026-05-04 01:11 | -24.91834 | 152.29846 | 987 ft | 112 kts | 145° |
| 2026-05-04 01:11 | -24.92192 | 152.30118 | 976 ft | 110 kts | 144° |
| 2026-05-04 01:11 | -24.92509 | 152.30365 | 987 ft | 112 kts | 144° |
| 2026-05-04 01:12 | -24.92825 | 152.30600 | 1096 ft | 107 kts | 146° |
| 2026-05-04 01:12 | -24.93140 | 152.30825 | 1073 ft | 113 kts | 146° |
| 2026-05-04 01:12 | -24.93469 | 152.31077 | 1079 ft | 116 kts | 143° |
| 2026-05-04 01:12 | -24.93761 | 152.31368 | 1135 ft | 109 kts | 123° |
| 2026-05-04 01:13 | -24.93846 | 152.31760 | 1101 ft | 108 kts | 87° |
| 2026-05-04 01:13 | -24.93669 | 152.32132 | 965 ft | 114 kts | 54° |
| 2026-05-04 01:13 | -24.93406 | 152.32433 | 856 ft | 105 kts | 52° |
| 2026-05-04 01:13 | -24.93155 | 152.32709 | 749 ft | 98 kts | 56° |
| 2026-05-04 01:14 | -24.92937 | 152.32990 | 640 ft | 93 kts | 57° |
| 2026-05-04 01:14 | -24.92727 | 152.33248 | 538 ft | 92 kts | 47° |
| 2026-05-04 01:14 | -24.92424 | 152.33371 | 441 ft | 99 kts | 6° |
| 2026-05-04 01:14 | -24.92060 | 152.33295 | 484 ft | 110 kts | 345° |
| 2026-05-04 01:15 | -24.91715 | 152.33116 | 320 ft | 107 kts | 330° |
| 2026-05-04 01:15 | -24.91407 | 152.32908 | 172 ft | 101 kts | 328° |
| 2026-05-04 01:15 | -24.91121 | 152.32698 | 105 ft | 95 kts | 327° |
| 2026-05-04 01:15 | -24.90872 | 152.32518 | 105 ft | 78 kts | 326° |
| 2026-05-04 01:16 | -24.90605 | 152.32332 | 128 ft | 101 kts | 329° |
| 2026-05-04 01:16 | -24.90286 | 152.32121 | 219 ft | 111 kts | 330° |
| 2026-05-04 01:16 | -24.89948 | 152.31898 | 347 ft | 116 kts | 324° |
| 2026-05-04 01:16 | -24.89683 | 152.31567 | 496 ft | 117 kts | 294° |
| 2026-05-04 01:17 | -24.89520 | 152.31154 | 683 ft | 119 kts | 291° |
| 2026-05-04 01:17 | -24.89312 | 152.30753 | 859 ft | 124 kts | 312° |
| 2026-05-04 01:17 | -24.88939 | 152.30512 | 1042 ft | 129 kts | 347° |
| 2026-05-04 01:17 | -24.88486 | 152.30446 | 1230 ft | 134 kts | 358° |
| 2026-05-04 01:18 | -24.88022 | 152.30385 | 1416 ft | 135 kts | 355° |
| 2026-05-04 01:18 | -24.87537 | 152.30351 | 1607 ft | 135 kts | 10° |
| 2026-05-04 01:18 | -24.86854 | 152.30935 | 1980 ft | 125 kts | 75° |
| 2026-05-04 01:18 | -24.87017 | 152.31798 | 2370 ft | 118 kts | 131° |
| 2026-05-04 01:19 | -24.87583 | 152.32436 | 2799 ft | 116 kts | 133° |
| 2026-05-04 01:19 | -24.88150 | 152.33060 | 3215 ft | 115 kts | 134° |
| 2026-05-04 01:19 | -24.88713 | 152.33682 | 3629 ft | 115 kts | 134° |
| 2026-05-04 01:19 | -24.89278 | 152.34300 | 4042 ft | 114 kts | 134° |
| 2026-05-04 01:20 | -24.89846 | 152.34904 | 4464 ft | 113 kts | 134° |
| 2026-05-04 01:20 | -24.90414 | 152.35509 | 4885 ft | 115 kts | 134° |
| 2026-05-04 01:20 | -24.90994 | 152.36122 | 5294 ft | 116 kts | 134° |
| 2026-05-04 01:20 | -24.91285 | 152.36887 | 5702 ft | 114 kts | 83° |
| 2026-05-04 01:21 | -24.91008 | 152.37714 | 6130 ft | 116 kts | 72° |
| 2026-05-04 01:21 | -24.90754 | 152.38408 | 6482 ft | 118 kts | 70° |
| 2026-05-04 01:21 | -24.90267 | 152.39712 | 7090 ft | 120 kts | 71° |
| 2026-05-04 01:21 | -24.88917 | 152.43512 | 7964 ft | 167 kts | 71° |
| 2026-05-04 01:22 | -24.87224 | 152.48474 | 7961 ft | 175 kts | 71° |
| 2026-05-04 01:22 | -24.86528 | 152.50712 | 7955 ft | 173 kts | 87° |
| 2026-05-04 01:22 | -24.86892 | 152.51927 | 7955 ft | 172 kts | 130° |
| 2026-05-04 01:22 | -24.87940 | 152.52514 | 7958 ft | 175 kts | 172° |
| 2026-05-04 01:23 | -24.89144 | 152.52442 | 7959 ft | 177 kts | 183° |
| 2026-05-04 01:23 | -24.90364 | 152.52294 | 7962 ft | 177 kts | 184° |
| 2026-05-04 01:23 | -24.91588 | 152.52136 | 7960 ft | 177 kts | 184° |
| 2026-05-04 01:23 | -24.92809 | 152.51979 | 7963 ft | 177 kts | 183° |
| 2026-05-04 01:24 | -24.94031 | 152.51823 | 7960 ft | 177 kts | 184° |
| 2026-05-04 01:24 | -24.95254 | 152.51666 | 7962 ft | 177 kts | 184° |
| 2026-05-04 01:24 | -24.96436 | 152.51852 | 7963 ft | 173 kts | 148° |
| 2026-05-04 01:24 | -24.97218 | 152.52821 | 7964 ft | 171 kts | 121° |
| 2026-05-04 01:25 | -24.98618 | 152.55515 | 7959 ft | 172 kts | 119° |
| 2026-05-04 01:25 | -25.02220 | 152.64877 | 7957 ft | 173 kts | 78° |
| 2026-05-04 01:25 | -24.97118 | 152.73783 | 7958 ft | 176 kts | 50° |
| 2026-05-04 01:25 | -24.90487 | 152.81669 | 7949 ft | 175 kts | 50° |
| 2026-05-04 01:26 | -24.85777 | 152.89849 | 7945 ft | 164 kts | 109° |
| 2026-05-04 01:26 | -24.86399 | 152.91053 | 7951 ft | 166 kts | 140° |
| 2026-05-04 01:26 | -24.87494 | 152.91404 | 7952 ft | 172 kts | 184° |
| 2026-05-04 01:26 | -24.88605 | 152.90896 | 7953 ft | 177 kts | 211° |
| 2026-05-04 01:27 | -24.89630 | 152.90133 | 7961 ft | 178 kts | 210° |
| 2026-05-04 01:27 | -24.90647 | 152.89387 | 8177 ft | 174 kts | 210° |
| 2026-05-04 01:27 | -24.91632 | 152.88666 | 8419 ft | 171 kts | 210° |
| 2026-05-04 01:27 | -24.92620 | 152.87947 | 8669 ft | 169 kts | 211° |
| 2026-05-04 01:28 | -24.93601 | 152.87241 | 8911 ft | 168 kts | 210° |
| 2026-05-04 01:28 | -24.98838 | 152.83645 | 10212 ft | 169 kts | 210° |
| 2026-05-04 01:28 | -25.07904 | 152.84306 | 11958 ft | 187 kts | 156° |
| 2026-05-04 01:28 | -25.11778 | 152.86319 | 11963 ft | 206 kts | 156° |
| 2026-05-04 01:29 | -25.13041 | 152.86977 | 12191 ft | 196 kts | 156° |
| 2026-05-04 01:29 | -25.15767 | 152.88415 | 12785 ft | 182 kts | 156° |
| 2026-05-04 01:29 | -25.20090 | 152.90751 | 13854 ft | 170 kts | 156° |
| 2026-05-04 01:29 | -25.24213 | 152.93053 | 14831 ft | 162 kts | 156° |
| 2026-05-04 01:30 | -25.28391 | 152.95424 | 15262 ft | 187 kts | 156° |
| 2026-05-04 01:30 | -25.33459 | 152.98230 | 14802 ft | 217 kts | 156° |
| 2026-05-04 01:30 | -25.39218 | 152.98885 | 14184 ft | 211 kts | 206° |
| 2026-05-04 01:30 | -25.42418 | 152.94088 | 13514 ft | 200 kts | 262° |
| 2026-05-04 01:31 | -25.41340 | 152.88286 | 12814 ft | 184 kts | 296° |
| 2026-05-04 01:31 | -25.37486 | 152.84843 | 12128 ft | 192 kts | 349° |
| 2026-05-04 01:31 | -25.32482 | 152.86553 | 11471 ft | 202 kts | 34° |
| 2026-05-04 01:31 | -25.31210 | 152.87665 | 11282 ft | 203 kts | 37° |
| 2026-05-04 01:32 | -25.30020 | 152.88403 | 11116 ft | 199 kts | 10° |
| 2026-05-04 01:32 | -25.28676 | 152.88208 | 10952 ft | 197 kts | 332° |
| 2026-05-04 01:32 | -25.27741 | 152.87141 | 10793 ft | 197 kts | 295° |
| 2026-05-04 01:32 | -25.27592 | 152.85694 | 10513 ft | 186 kts | 256° |
| 2026-05-04 01:33 | -25.28178 | 152.84427 | 10238 ft | 186 kts | 233° |
| 2026-05-04 01:33 | -25.29050 | 152.83384 | 9964 ft | 185 kts | 225° |
| 2026-05-04 01:33 | -25.30117 | 152.82654 | 9655 ft | 182 kts | 190° |
| 2026-05-04 01:33 | -25.31333 | 152.82865 | 9356 ft | 179 kts | 150° |
| 2026-05-04 01:34 | -25.32216 | 152.83794 | 9058 ft | 177 kts | 118° |
| 2026-05-04 01:34 | -25.32371 | 152.85092 | 8771 ft | 176 kts | 79° |
| 2026-05-04 01:34 | -25.32362 | 152.86406 | 8476 ft | 173 kts | 111° |
| 2026-05-04 01:34 | -25.33162 | 152.87350 | 8187 ft | 173 kts | 154° |
| 2026-05-04 01:35 | -25.34345 | 152.87428 | 7897 ft | 176 kts | 195° |
| 2026-05-04 01:35 | -25.35296 | 152.86582 | 7592 ft | 183 kts | 237° |
| 2026-05-04 01:35 | -25.35526 | 152.85206 | 7238 ft | 186 kts | 279° |
| 2026-05-04 01:35 | -25.35135 | 152.83872 | 6884 ft | 181 kts | 295° |
| 2026-05-04 01:36 | -25.34297 | 152.82922 | 6536 ft | 176 kts | 339° |
| 2026-05-04 01:36 | -25.33139 | 152.82848 | 6181 ft | 170 kts | 21° |
| 2026-05-04 01:36 | -25.31987 | 152.83378 | 6099 ft | 183 kts | 27° |
| 2026-05-04 01:36 | -25.30816 | 152.83954 | 5887 ft | 174 kts | 28° |
| 2026-05-04 01:37 | -25.29715 | 152.84491 | 5191 ft | 192 kts | 28° |
| 2026-05-04 01:37 | -25.28441 | 152.85129 | 4709 ft | 187 kts | 28° |
| 2026-05-04 01:37 | -25.27390 | 152.85614 | 4353 ft | 147 kts | 19° |
| 2026-05-04 01:37 | -25.26418 | 152.85376 | 4017 ft | 166 kts | 323° |
| 2026-05-04 01:38 | -25.25815 | 152.84277 | 3700 ft | 163 kts | 276° |
| 2026-05-04 01:38 | -25.26052 | 152.83179 | 3381 ft | 143 kts | 225° |
| 2026-05-04 01:38 | -25.26852 | 152.82747 | 3068 ft | 125 kts | 179° |
| 2026-05-04 01:38 | -25.27711 | 152.82716 | 2701 ft | 122 kts | 177° |
| 2026-05-04 01:39 | -25.28527 | 152.82854 | 2316 ft | 116 kts | 152° |
| 2026-05-04 01:39 | -25.29137 | 152.83405 | 1912 ft | 115 kts | 138° |
| 2026-05-04 01:39 | -25.29710 | 152.84004 | 1462 ft | 114 kts | 135° |
| 2026-05-04 01:39 | -25.30213 | 152.84731 | 881 ft | 119 kts | 129° |
| 2026-05-04 01:40 | -25.30643 | 152.85419 | 582 ft | 99 kts | 123° |
| 2026-05-04 01:40 | -25.30967 | 152.86015 | 333 ft | 81 kts | 122° |
| 2026-05-04 01:40 | -25.31221 | 152.86493 | 169 ft | 73 kts | 123° |
| 2026-05-04 01:40 | -25.31467 | 152.86973 | 92 ft | 67 kts | 121° |
| 2026-05-04 01:41 | -25.31706 | 152.87449 | 57 ft | 67 kts | 121° |
| 2026-05-04 01:41 | -25.31925 | 152.87896 | 92 ft | 80 kts | 122° |
| 2026-05-04 01:41 | -25.32219 | 152.88497 | 253 ft | 97 kts | 119° |
| 2026-05-04 01:41 | -25.32184 | 152.89224 | 548 ft | 114 kts | 56° |
| 2026-05-04 01:42 | -25.31431 | 152.89315 | 933 ft | 133 kts | 322° |
| 2026-05-04 01:42 | -25.30747 | 152.88588 | 1036 ft | 136 kts | 293° |
| 2026-05-04 01:42 | -25.30469 | 152.87671 | 950 ft | 118 kts | 286° |
| 2026-05-04 01:42 | -25.30475 | 152.86925 | 799 ft | 91 kts | 216° |
| 2026-05-04 01:43 | -25.31072 | 152.86641 | 501 ft | 98 kts | 165° |
| 2026-05-04 01:43 | -25.31521 | 152.87089 | 83 ft | 78 kts | 123° |
| 2026-05-04 01:43 | -25.31757 | 152.87550 | 55 ft | 55 kts | 120° |
| 2026-05-04 01:43 | -25.31859 | 152.87762 | 57 ft | 29 kts | 117° |
| 2026-05-04 01:44 | -25.32022 | 152.88086 | 57 ft | 51 kts | 119° |
| 2026-05-04 01:44 | -25.32165 | 152.88370 | 54 ft | 25 kts | 112° |
| 2026-05-04 01:44 | -25.32135 | 152.88453 | 55 ft | 13 kts | 29° |
| 2026-05-04 01:44 | -25.32069 | 152.88476 | 56 ft | 3 kts | 311° |
| 2026-05-04 01:45 | -25.32043 | 152.88414 | 56 ft | 10 kts | 290° |
| 2026-05-04 01:45 | -25.32014 | 152.88384 | 56 ft | 4 kts | 20° |
| 2026-05-04 01:45 | -25.32004 | 152.88429 | 56 ft | 2 kts | 86° |
| 2026-05-04 01:46 | -25.32003 | 152.88436 | 56 ft | 0 kts | 85° |